createdAt,value
2022-11-22T00:00:15.415Z,4.22
2022-11-22T00:01:12.612Z,4.24
2022-11-22T00:02:12.839Z,4.12
2022-11-22T00:03:12.616Z,4.2
2022-11-22T00:04:12.567Z,4.2
2022-11-22T00:05:12.643Z,4.22
2022-11-22T00:06:12.648Z,4.21
2022-11-22T00:07:12.753Z,4.09
2022-11-22T00:08:12.570Z,4.16
2022-11-22T00:09:12.610Z,4.21
2022-11-22T00:10:12.624Z,4.2
2022-11-22T00:11:16.281Z,4.13
2022-11-22T00:12:15.578Z,4.2
2022-11-22T00:13:12.619Z,4.14
2022-11-22T00:14:12.600Z,4.22
2022-11-22T00:15:12.634Z,4.3
2022-11-22T00:16:12.681Z,4.14
2022-11-22T00:17:12.582Z,4.24
2022-11-22T00:18:12.578Z,4.18
2022-11-22T00:19:12.603Z,4.25
2022-11-22T00:20:12.684Z,4.14
2022-11-22T00:21:12.710Z,4.3
2022-11-22T00:22:12.604Z,4.3
2022-11-22T00:23:12.586Z,4.27
2022-11-22T00:24:12.600Z,4.27
2022-11-22T00:25:12.657Z,4.24
2022-11-22T00:26:12.652Z,4.31
2022-11-22T00:27:15.783Z,4.3
2022-11-22T00:28:12.622Z,4.32
2022-11-22T00:29:12.631Z,4.13
2022-11-22T00:30:12.666Z,4.12
2022-11-22T00:31:12.642Z,4.2
2022-11-22T00:32:13.645Z,4.28
2022-11-22T00:33:12.639Z,4.34
2022-11-22T00:34:12.634Z,4.32
2022-11-22T00:35:12.634Z,4.36
2022-11-22T00:36:12.643Z,4.36
2022-11-22T00:37:12.619Z,4.32
2022-11-22T00:38:15.701Z,4.48
2022-11-22T00:39:12.623Z,4.38
2022-11-22T00:40:12.647Z,4.43
2022-11-22T00:41:12.672Z,4.43
2022-11-22T00:42:12.719Z,4.49
2022-11-22T00:43:15.538Z,4.48
2022-11-22T00:44:12.632Z,4.52
2022-11-22T00:45:15.737Z,4.56
2022-11-22T00:46:12.643Z,4.5
2022-11-22T00:47:15.612Z,4.52
2022-11-22T00:48:12.674Z,4.49
2022-11-22T00:49:15.428Z,4.56
2022-11-22T00:50:12.655Z,4.5
2022-11-22T00:51:12.671Z,4.61
2022-11-22T00:52:12.655Z,4.61
2022-11-22T00:53:12.658Z,4.5
2022-11-22T00:54:15.523Z,4.58
2022-11-22T00:55:12.658Z,4.58
2022-11-22T00:56:12.700Z,4.61
2022-11-22T00:57:12.665Z,4.56
2022-11-22T00:58:12.710Z,4.66
2022-11-22T00:59:12.665Z,4.58
2022-11-22T01:00:15.693Z,4.7
2022-11-22T01:01:13.033Z,4.64
2022-11-22T01:02:12.677Z,4.64
2022-11-22T01:03:12.662Z,4.61
2022-11-22T01:04:12.664Z,4.66
2022-11-22T01:05:15.431Z,4.75
2022-11-22T01:06:12.675Z,4.68
2022-11-22T01:07:13.079Z,4.78
2022-11-22T01:08:12.702Z,4.67
2022-11-22T01:09:12.677Z,4.82
2022-11-22T01:10:12.673Z,4.79
2022-11-22T01:11:12.716Z,4.83
2022-11-22T01:12:12.665Z,4.76
2022-11-22T01:13:12.722Z,4.86
2022-11-22T01:14:12.702Z,4.84
2022-11-22T01:15:12.662Z,4.9
2022-11-22T01:16:12.902Z,4.87
2022-11-22T01:17:12.696Z,4.84
2022-11-22T01:18:12.691Z,4.76
2022-11-22T01:19:12.696Z,4.87
2022-11-22T01:20:12.760Z,4.92
2022-11-22T01:21:12.708Z,4.86
2022-11-22T01:22:12.688Z,4.92
2022-11-22T01:23:15.660Z,4.87
2022-11-22T01:24:12.689Z,4.87
2022-11-22T01:25:12.693Z,4.76
2022-11-22T01:26:12.721Z,4.83
2022-11-22T01:27:15.478Z,4.82
2022-11-22T01:28:12.704Z,4.84
2022-11-22T01:29:12.720Z,4.84
2022-11-22T01:30:12.728Z,4.87
2022-11-22T01:31:12.718Z,4.79
2022-11-22T01:32:12.725Z,4.89
2022-11-22T01:33:12.735Z,4.84
2022-11-22T01:34:12.746Z,4.89
2022-11-22T01:35:15.205Z,4.83
2022-11-22T01:36:12.736Z,4.84
2022-11-22T01:37:12.712Z,4.9
2022-11-22T01:38:15.979Z,4.86
2022-11-22T01:39:12.729Z,4.82
2022-11-22T01:40:12.761Z,4.95
2022-11-22T01:41:12.752Z,4.95
2022-11-22T01:42:12.707Z,4.92
2022-11-22T01:43:12.720Z,4.89
2022-11-22T01:44:12.711Z,4.83
2022-11-22T01:45:12.741Z,4.98
2022-11-22T01:46:12.778Z,4.97
2022-11-22T01:47:12.728Z,4.97
2022-11-22T01:48:12.717Z,4.94
2022-11-22T01:49:15.777Z,4.92
2022-11-22T01:50:12.816Z,4.9
2022-11-22T01:51:12.742Z,4.9
2022-11-22T01:52:12.749Z,4.95
2022-11-22T01:53:12.749Z,4.84
2022-11-22T01:54:12.755Z,4.94
2022-11-22T01:55:12.742Z,5.04
2022-11-22T01:56:12.768Z,4.9
2022-11-22T01:57:12.755Z,4.97
2022-11-22T01:58:12.752Z,4.92
2022-11-22T01:59:12.753Z,4.84
2022-11-22T02:00:15.667Z,4.95
2022-11-22T02:01:12.952Z,4.94
2022-11-22T02:02:12.774Z,4.98
2022-11-22T02:03:12.779Z,4.95
2022-11-22T02:04:12.770Z,4.87
2022-11-22T02:05:12.792Z,4.94
2022-11-22T02:06:12.784Z,5.04
2022-11-22T02:07:12.932Z,4.98
2022-11-22T02:08:12.749Z,4.94
2022-11-22T02:09:12.767Z,5
2022-11-22T02:10:12.747Z,4.92
2022-11-22T02:11:13.285Z,5
2022-11-22T02:12:12.777Z,5
2022-11-22T02:13:12.776Z,4.98
2022-11-22T02:14:12.773Z,5.05
2022-11-22T02:15:12.773Z,5
2022-11-22T02:16:12.822Z,5.05
2022-11-22T02:17:12.756Z,5.05
2022-11-22T02:18:12.807Z,5.08
2022-11-22T02:19:12.775Z,5.01
2022-11-22T02:20:12.799Z,4.98
2022-11-22T02:21:12.825Z,5.1
2022-11-22T02:22:13.842Z,5.1
2022-11-22T02:23:12.779Z,5.15
2022-11-22T02:24:12.784Z,5.16
2022-11-22T02:25:12.813Z,5.13
2022-11-22T02:26:12.786Z,5.15
2022-11-22T02:27:15.982Z,5.05
2022-11-22T02:28:12.811Z,5.04
2022-11-22T02:29:12.793Z,5.13
2022-11-22T02:30:12.796Z,5.07
2022-11-22T02:31:12.800Z,5.13
2022-11-22T02:32:12.851Z,5.05
2022-11-22T02:33:12.816Z,5.08
2022-11-22T02:34:12.820Z,5.19
2022-11-22T02:35:12.785Z,5.1
2022-11-22T02:36:12.804Z,5.16
2022-11-22T02:37:12.840Z,5.04
2022-11-22T02:38:15.855Z,5.08
2022-11-22T02:39:12.816Z,5.16
2022-11-22T02:40:12.803Z,5.15
2022-11-22T02:41:13.002Z,5.16
2022-11-22T02:42:12.817Z,5.18
2022-11-22T02:43:12.812Z,5.23
2022-11-22T02:44:12.811Z,5.18
2022-11-22T02:45:12.829Z,5.12
2022-11-22T02:46:12.824Z,5.16
2022-11-22T02:47:12.814Z,5.23
2022-11-22T02:48:12.846Z,5.16
2022-11-22T02:49:12.817Z,5.18
2022-11-22T02:50:15.868Z,5.16
2022-11-22T02:51:12.805Z,5.19
2022-11-22T02:52:12.803Z,5.23
2022-11-22T02:53:12.872Z,5.28
2022-11-22T02:54:13.876Z,5.2
2022-11-22T02:55:12.839Z,5.31
2022-11-22T02:56:12.839Z,5.2
2022-11-22T02:57:12.847Z,5.37
2022-11-22T02:58:12.825Z,5.25
2022-11-22T02:59:12.849Z,5.33
2022-11-22T03:00:12.818Z,5.25
2022-11-22T03:01:13.120Z,5.31
2022-11-22T03:02:12.827Z,5.31
2022-11-22T03:03:12.836Z,5.2
2022-11-22T03:04:12.909Z,5.31
2022-11-22T03:05:15.900Z,5.28
2022-11-22T03:06:13.001Z,5.22
2022-11-22T03:07:13.144Z,5.19
2022-11-22T03:08:12.851Z,5.25
2022-11-22T03:09:12.894Z,5.26
2022-11-22T03:10:15.866Z,5.31
2022-11-22T03:11:12.882Z,5.37
2022-11-22T03:12:12.865Z,5.29
2022-11-22T03:13:12.858Z,5.23
2022-11-22T03:14:12.864Z,5.29
2022-11-22T03:15:12.859Z,5.29
2022-11-22T03:16:15.890Z,5.33
2022-11-22T03:17:12.901Z,5.33
2022-11-22T03:18:12.855Z,5.33
2022-11-22T03:19:12.999Z,5.29
2022-11-22T03:20:12.904Z,5.29
2022-11-22T03:21:16.046Z,5.31
2022-11-22T03:22:14.546Z,5.36
2022-11-22T03:23:12.885Z,5.33
2022-11-22T03:24:12.890Z,5.31
2022-11-22T03:25:12.912Z,5.33
2022-11-22T03:26:12.900Z,5.33
2022-11-22T03:27:12.934Z,5.33
2022-11-22T03:28:12.875Z,5.36
2022-11-22T03:29:12.889Z,5.36
2022-11-22T03:30:12.887Z,5.33
2022-11-22T03:31:12.941Z,5.26
2022-11-22T03:32:16.400Z,5.41
2022-11-22T03:33:12.893Z,5.34
2022-11-22T03:34:12.890Z,5.28
2022-11-22T03:35:12.900Z,5.36
2022-11-22T03:36:13.100Z,5.34
2022-11-22T03:37:12.946Z,5.38
2022-11-22T03:38:12.903Z,5.43
2022-11-22T03:39:12.931Z,5.38
2022-11-22T03:40:12.901Z,5.36
2022-11-22T03:41:12.922Z,5.36
2022-11-22T03:42:16.782Z,5.46
2022-11-22T03:43:15.974Z,5.49
2022-11-22T03:44:12.927Z,5.37
2022-11-22T03:45:12.912Z,5.36
2022-11-22T03:46:12.902Z,5.44
2022-11-22T03:47:12.940Z,5.46
2022-11-22T03:48:12.915Z,5.4
2022-11-22T03:49:12.918Z,5.55
2022-11-22T03:50:12.929Z,5.55
2022-11-22T03:51:12.926Z,5.49
2022-11-22T03:52:12.964Z,5.56
2022-11-22T03:53:12.960Z,5.55
2022-11-22T03:54:20.516Z,5.52
2022-11-22T03:55:12.933Z,5.51
2022-11-22T03:56:12.938Z,5.59
2022-11-22T03:57:12.979Z,5.59
2022-11-22T03:58:12.922Z,5.61
2022-11-22T03:59:12.935Z,5.56
2022-11-22T04:00:12.940Z,5.54
2022-11-22T04:01:19.316Z,5.52
2022-11-22T04:02:13.233Z,5.61
2022-11-22T04:03:12.845Z,5.56
2022-11-22T04:04:12.946Z,5.59
2022-11-22T04:05:13.999Z,5.58
2022-11-22T04:06:12.937Z,5.61
2022-11-22T04:07:13.185Z,5.54
2022-11-22T04:08:12.975Z,5.56
2022-11-22T04:09:13.421Z,5.62
2022-11-22T04:10:14.425Z,5.64
2022-11-22T04:11:12.939Z,5.58
2022-11-22T04:12:12.966Z,5.61
2022-11-22T04:13:12.981Z,5.62
2022-11-22T04:14:12.963Z,5.49
2022-11-22T04:15:12.940Z,5.51
2022-11-22T04:16:15.789Z,5.59
2022-11-22T04:17:12.985Z,5.62
2022-11-22T04:18:12.964Z,5.56
2022-11-22T04:19:12.977Z,5.56
2022-11-22T04:20:12.963Z,5.62
2022-11-22T04:21:12.953Z,5.56
2022-11-22T04:22:12.998Z,5.49
2022-11-22T04:23:12.977Z,5.59
2022-11-22T04:24:12.991Z,5.55
2022-11-22T04:25:13.033Z,5.58
2022-11-22T04:26:12.973Z,5.52
2022-11-22T04:27:15.808Z,5.62
2022-11-22T04:28:12.992Z,5.56
2022-11-22T04:29:14.895Z,5.61
2022-11-22T04:30:20.204Z,5.56
2022-11-22T04:31:12.987Z,5.7
2022-11-22T04:32:12.981Z,5.61
2022-11-22T04:33:12.987Z,5.59
2022-11-22T04:34:12.974Z,5.56
2022-11-22T04:35:13.016Z,5.64
2022-11-22T04:36:17.870Z,5.72
2022-11-22T04:37:13.029Z,5.58
2022-11-22T04:38:15.876Z,5.67
2022-11-22T04:39:13.024Z,5.72
2022-11-22T04:40:13.019Z,5.69
2022-11-22T04:41:13.004Z,5.65
2022-11-22T04:42:12.988Z,5.76
2022-11-22T04:43:13.004Z,5.67
2022-11-22T04:44:13.068Z,5.76
2022-11-22T04:45:13.049Z,5.74
2022-11-22T04:46:13.009Z,5.72
2022-11-22T04:47:12.987Z,5.7
2022-11-22T04:48:12.987Z,5.73
2022-11-22T04:49:13.968Z,5.79
2022-11-22T04:50:13.066Z,5.76
2022-11-22T04:51:13.031Z,5.79
2022-11-22T04:52:12.856Z,5.84
2022-11-22T04:53:13.060Z,5.79
2022-11-22T04:54:16.072Z,5.8
2022-11-22T04:55:13.024Z,5.87
2022-11-22T04:56:13.049Z,5.77
2022-11-22T04:57:13.045Z,5.83
2022-11-22T04:58:13.016Z,5.87
2022-11-22T04:59:13.025Z,5.77
2022-11-22T05:00:13.107Z,5.91
2022-11-22T05:01:13.353Z,5.84
2022-11-22T05:02:13.032Z,5.81
2022-11-22T05:03:13.021Z,5.84
2022-11-22T05:04:13.053Z,5.81
2022-11-22T05:05:16.169Z,5.94
2022-11-22T05:06:13.030Z,5.92
2022-11-22T05:07:13.205Z,5.92
2022-11-22T05:08:13.037Z,5.8
2022-11-22T05:09:13.024Z,5.84
2022-11-22T05:10:13.044Z,5.87
2022-11-22T05:11:13.049Z,5.8
2022-11-22T05:12:13.076Z,5.87
2022-11-22T05:13:13.074Z,5.92
2022-11-22T05:14:13.042Z,5.92
2022-11-22T05:15:13.063Z,5.88
2022-11-22T05:16:13.044Z,5.92
2022-11-22T05:17:17.626Z,5.91
2022-11-22T05:18:13.132Z,5.87
2022-11-22T05:19:13.409Z,5.83
2022-11-22T05:20:13.062Z,5.8
2022-11-22T05:21:16.137Z,5.92
2022-11-22T05:22:13.121Z,5.81
2022-11-22T05:23:13.087Z,5.88
2022-11-22T05:24:13.089Z,5.8
2022-11-22T05:25:13.081Z,5.81
2022-11-22T05:26:13.072Z,5.91
2022-11-22T05:27:13.084Z,5.8
2022-11-22T05:28:13.073Z,5.94
2022-11-22T05:29:13.107Z,5.88
2022-11-22T05:30:13.062Z,5.9
2022-11-22T05:31:13.090Z,5.91
2022-11-22T05:32:16.150Z,5.88
2022-11-22T05:33:13.096Z,5.79
2022-11-22T05:34:13.074Z,5.79
2022-11-22T05:35:13.078Z,5.88
2022-11-22T05:36:13.064Z,5.84
2022-11-22T05:37:16.174Z,5.76
2022-11-22T05:38:13.083Z,5.76
2022-11-22T05:39:13.084Z,5.73
2022-11-22T05:40:13.092Z,5.77
2022-11-22T05:41:13.095Z,5.8
2022-11-22T05:42:13.101Z,5.84
2022-11-22T05:43:15.896Z,5.8
2022-11-22T05:44:13.109Z,5.9
2022-11-22T05:45:13.117Z,5.76
2022-11-22T05:46:13.136Z,5.92
2022-11-22T05:47:13.103Z,5.88
2022-11-22T05:48:14.451Z,5.87
2022-11-22T05:49:13.122Z,5.88
2022-11-22T05:50:13.099Z,5.87
2022-11-22T05:51:13.087Z,5.92
2022-11-22T05:52:13.090Z,5.98
2022-11-22T05:53:13.111Z,5.88
2022-11-22T05:54:13.103Z,5.95
2022-11-22T05:55:13.117Z,6.02
2022-11-22T05:56:13.149Z,6.01
2022-11-22T05:57:13.100Z,5.95
2022-11-22T05:58:13.120Z,6.09
2022-11-22T05:59:16.122Z,5.99
2022-11-22T06:00:13.195Z,6.06
2022-11-22T06:01:13.151Z,6.09
2022-11-22T06:02:13.401Z,6.15
2022-11-22T06:03:13.143Z,6.09
2022-11-22T06:04:13.123Z,6.05
2022-11-22T06:05:13.157Z,6.1
2022-11-22T06:06:13.126Z,6.15
2022-11-22T06:07:15.252Z,6.13
2022-11-22T06:08:13.187Z,6.13
2022-11-22T06:09:13.135Z,6.16
2022-11-22T06:10:15.974Z,6.06
2022-11-22T06:11:13.129Z,6.26
2022-11-22T06:12:13.155Z,6.12
2022-11-22T06:13:13.186Z,6.2
2022-11-22T06:14:13.160Z,6.22
2022-11-22T06:15:12.989Z,6.25
2022-11-22T06:16:13.185Z,6.26
2022-11-22T06:17:16.029Z,6.19
2022-11-22T06:18:13.148Z,6.31
2022-11-22T06:19:13.140Z,6.32
2022-11-22T06:20:13.180Z,6.28
2022-11-22T06:21:16.074Z,6.32
2022-11-22T06:22:13.154Z,6.38
2022-11-22T06:23:13.173Z,6.28
2022-11-22T06:24:15.745Z,6.25
2022-11-22T06:25:13.314Z,6.32
2022-11-22T06:26:13.151Z,6.31
2022-11-22T06:27:13.154Z,6.43
2022-11-22T06:28:13.178Z,6.35
2022-11-22T06:29:13.160Z,6.35
2022-11-22T06:30:13.179Z,6.39
2022-11-22T06:31:13.164Z,6.39
2022-11-22T06:32:14.254Z,6.36
2022-11-22T06:33:13.322Z,6.29
2022-11-22T06:34:13.256Z,6.43
2022-11-22T06:35:13.157Z,6.44
2022-11-22T06:36:13.166Z,6.29
2022-11-22T06:37:13.192Z,6.43
2022-11-22T06:38:13.184Z,6.46
2022-11-22T06:39:13.169Z,6.43
2022-11-22T06:40:13.175Z,6.44
2022-11-22T06:41:13.180Z,6.41
2022-11-22T06:42:13.185Z,6.5
2022-11-22T06:43:15.988Z,6.52
2022-11-22T06:44:13.173Z,6.5
2022-11-22T06:45:13.189Z,6.52
2022-11-22T06:46:13.167Z,6.52
2022-11-22T06:47:13.175Z,6.54
2022-11-22T06:48:13.218Z,6.57
2022-11-22T06:49:13.192Z,6.53
2022-11-22T06:50:16.240Z,6.54
2022-11-22T06:51:13.255Z,6.54
2022-11-22T06:52:13.229Z,6.59
2022-11-22T06:53:49.314Z,6.54
2022-11-22T06:54:16.250Z,6.57
2022-11-22T06:56:01.409Z,6.53
2022-11-22T06:56:13.200Z,6.59
2022-11-22T06:57:13.204Z,6.53
2022-11-22T06:58:13.197Z,6.59
2022-11-22T06:59:13.236Z,6.54
2022-11-22T07:00:13.215Z,6.65
2022-11-22T07:01:13.431Z,6.54
2022-11-22T07:02:13.268Z,6.6
2022-11-22T07:03:13.205Z,6.62
2022-11-22T07:04:13.273Z,6.65
2022-11-22T07:05:30.290Z,6.67
2022-11-22T07:06:13.222Z,6.62
2022-11-22T07:07:13.441Z,6.59
2022-11-22T07:08:18.417Z,6.59
2022-11-22T07:09:13.269Z,6.59
2022-11-22T07:10:13.220Z,6.59
2022-11-22T07:11:13.220Z,6.67
2022-11-22T07:12:13.203Z,6.71
2022-11-22T07:13:13.229Z,6.72
2022-11-22T07:14:14.197Z,6.65
2022-11-22T07:15:13.213Z,6.75
2022-11-22T07:16:16.219Z,6.67
2022-11-22T07:17:13.201Z,6.7
2022-11-22T07:18:13.227Z,6.65
2022-11-22T07:19:13.247Z,6.7
2022-11-22T07:20:13.241Z,6.67
2022-11-22T07:21:18.251Z,6.67
2022-11-22T07:22:13.234Z,6.77
2022-11-22T07:23:13.228Z,6.71
2022-11-22T07:24:13.265Z,6.74
2022-11-22T07:25:13.303Z,6.74
2022-11-22T07:26:13.239Z,6.75
2022-11-22T07:27:13.234Z,6.78
2022-11-22T07:28:13.236Z,6.68
2022-11-22T07:29:13.256Z,6.82
2022-11-22T07:30:13.231Z,6.8
2022-11-22T07:31:13.269Z,6.78
2022-11-22T07:32:16.017Z,6.82
2022-11-22T07:33:13.230Z,6.83
2022-11-22T07:34:13.264Z,6.74
2022-11-22T07:35:13.242Z,6.85
2022-11-22T07:36:13.264Z,6.74
2022-11-22T07:37:14.223Z,6.77
2022-11-22T07:38:13.269Z,6.82
2022-11-22T07:39:13.262Z,6.82
2022-11-22T07:40:13.352Z,6.8
2022-11-22T07:41:13.271Z,6.78
2022-11-22T07:42:13.246Z,6.78
2022-11-22T07:43:13.244Z,6.78
2022-11-22T07:44:13.284Z,6.83
2022-11-22T07:45:13.246Z,6.87
2022-11-22T07:46:13.252Z,6.77
2022-11-22T07:47:15.240Z,6.86
2022-11-22T07:48:16.025Z,6.83
2022-11-22T07:49:13.286Z,6.82
2022-11-22T07:50:13.265Z,6.85
2022-11-22T07:51:13.291Z,6.85
2022-11-22T07:52:13.299Z,6.83
2022-11-22T07:53:13.357Z,6.82
2022-11-22T07:54:13.298Z,6.89
2022-11-22T07:55:18.587Z,6.89
2022-11-22T07:56:13.277Z,6.87
2022-11-22T07:57:13.392Z,6.87
2022-11-22T07:58:13.296Z,6.85
2022-11-22T07:59:16.346Z,6.87
2022-11-22T08:00:13.271Z,7.01
2022-11-22T08:01:13.333Z,6.93
2022-11-22T08:02:13.548Z,7
2022-11-22T08:03:22.736Z,6.96
2022-11-22T08:04:14.530Z,6.95
2022-11-22T08:05:13.429Z,7.05
2022-11-22T08:06:13.322Z,7.04
2022-11-22T08:07:13.408Z,6.95
2022-11-22T08:08:13.441Z,7.05
2022-11-22T08:09:13.437Z,7.05
2022-11-22T08:10:16.407Z,7.03
2022-11-22T08:11:13.283Z,7.01
2022-11-22T08:12:13.291Z,7.15
2022-11-22T08:13:13.402Z,6.92
2022-11-22T08:14:13.333Z,7.11
2022-11-22T08:15:16.200Z,7.05
2022-11-22T08:16:13.289Z,7.1
2022-11-22T08:17:13.312Z,7.18
2022-11-22T08:18:13.302Z,7.05
2022-11-22T08:19:14.457Z,7.13
2022-11-22T08:20:13.318Z,7.1
2022-11-22T08:21:16.404Z,7.13
2022-11-22T08:22:13.318Z,7.21
2022-11-22T08:23:13.304Z,7.14
2022-11-22T08:24:13.447Z,7.25
2022-11-22T08:25:13.438Z,7.19
2022-11-22T08:26:16.477Z,7.28
2022-11-22T08:27:13.300Z,7.32
2022-11-22T08:28:13.304Z,7.4
2022-11-22T08:29:18.705Z,7.39
2022-11-22T08:30:13.303Z,7.41
2022-11-22T08:31:13.326Z,7.41
2022-11-22T08:32:13.303Z,7.48
2022-11-22T08:33:13.444Z,7.43
2022-11-22T08:34:13.300Z,7.51
2022-11-22T08:35:13.329Z,7.56
2022-11-22T08:36:13.323Z,7.7
2022-11-22T08:37:16.113Z,7.74
2022-11-22T08:38:13.311Z,7.67
2022-11-22T08:39:13.334Z,7.72
2022-11-22T08:40:13.437Z,7.78
2022-11-22T08:41:13.436Z,7.9
2022-11-22T08:42:13.312Z,7.9
2022-11-22T08:43:13.330Z,8.01
2022-11-22T08:44:13.321Z,7.91
2022-11-22T08:45:13.463Z,8.02
2022-11-22T08:46:13.353Z,8.05
2022-11-22T08:47:13.338Z,8.13
2022-11-22T08:48:22.893Z,8.18
2022-11-22T08:49:13.318Z,8.26
2022-11-22T08:50:13.373Z,8.23
2022-11-22T08:51:16.116Z,8.26
2022-11-22T08:52:13.360Z,8.23
2022-11-22T08:53:13.329Z,8.18
2022-11-22T08:54:13.365Z,8.24
2022-11-22T08:55:13.441Z,8.31
2022-11-22T08:56:13.460Z,8.23
2022-11-22T08:57:13.475Z,8.34
2022-11-22T08:58:13.340Z,8.39
2022-11-22T08:59:16.828Z,8.38
2022-11-22T09:00:13.346Z,8.46
2022-11-22T09:01:16.909Z,8.5
2022-11-22T09:02:13.356Z,8.45
2022-11-22T09:03:13.420Z,8.54
2022-11-22T09:04:13.404Z,8.52
2022-11-22T09:05:13.368Z,8.66
2022-11-22T09:08:26.620Z,8.69
2022-11-22T09:09:41.945Z,8.72
2022-11-22T09:10:25.879Z,8.72
2022-11-22T09:11:29.043Z,8.81
2022-11-22T09:12:25.991Z,8.66
2022-11-22T09:13:25.877Z,8.81
2022-11-22T09:14:25.860Z,8.78
2022-11-22T09:15:25.894Z,8.79
2022-11-22T09:16:25.981Z,8.9
2022-11-22T09:17:25.874Z,8.99
2022-11-22T09:18:25.886Z,8.96
2022-11-22T09:19:25.857Z,8.93
2022-11-22T09:20:25.985Z,8.96
2022-11-22T09:21:25.882Z,8.87
2022-11-22T09:22:33.151Z,8.86
2022-11-22T09:23:25.889Z,8.92
2022-11-22T09:24:25.873Z,8.96
2022-11-22T09:25:25.893Z,9.08
2022-11-22T09:26:25.889Z,9.11
2022-11-22T09:27:25.994Z,8.95
2022-11-22T09:28:25.997Z,8.84
2022-11-22T09:29:25.866Z,9.02
2022-11-22T09:30:26.028Z,9.03
2022-11-22T09:31:25.878Z,9.16
2022-11-22T09:32:29.424Z,9.18
2022-11-22T09:33:25.879Z,9.08
2022-11-22T09:34:25.875Z,9.12
2022-11-22T09:35:25.921Z,9.27
2022-11-22T09:36:25.905Z,9.26
2022-11-22T09:37:25.878Z,9.42
2022-11-22T09:38:25.901Z,9.27
2022-11-22T09:39:25.898Z,9.31
2022-11-22T09:40:25.957Z,9.39
2022-11-22T09:41:25.896Z,9.45
2022-11-22T09:42:25.977Z,9.27
2022-11-22T09:43:26.010Z,9.31
2022-11-22T09:44:27.063Z,9.33
2022-11-22T09:45:25.942Z,9.4
2022-11-22T09:46:25.896Z,9.39
2022-11-22T09:47:25.910Z,9.51
2022-11-22T09:48:26.035Z,9.56
2022-11-22T09:49:25.921Z,9.56
2022-11-22T09:50:26.003Z,9.72
2022-11-22T09:51:25.925Z,9.67
2022-11-22T09:52:25.987Z,9.72
2022-11-22T09:53:26.102Z,9.74
2022-11-22T09:54:29.035Z,9.81
2022-11-22T09:55:28.889Z,9.9
2022-11-22T09:56:25.929Z,9.81
2022-11-22T09:57:25.917Z,9.8
2022-11-22T09:58:25.919Z,9.88
2022-11-22T09:59:26.048Z,9.95
2022-11-22T10:00:26.112Z,9.85
2022-11-22T10:01:26.226Z,9.95
2022-11-22T10:02:25.918Z,9.84
2022-11-22T10:03:25.965Z,9.7
2022-11-22T10:04:26.087Z,9.9
2022-11-22T10:05:29.024Z,9.91
2022-11-22T10:06:25.956Z,9.8
2022-11-22T10:07:26.179Z,9.91
2022-11-22T10:08:25.933Z,9.91
2022-11-22T10:09:25.947Z,9.87
2022-11-22T10:10:26.017Z,9.94
2022-11-22T10:11:26.004Z,10.18
2022-11-22T10:12:25.943Z,10.15
2022-11-22T10:13:25.958Z,10.02
2022-11-22T10:14:25.950Z,10.09
2022-11-22T10:15:26.129Z,10.05
2022-11-22T10:16:29.113Z,10.15
2022-11-22T10:17:25.944Z,10.03
2022-11-22T10:18:25.946Z,10.17
2022-11-22T10:19:25.960Z,10.18
2022-11-22T10:20:26.117Z,10.18
2022-11-22T10:21:25.977Z,10.2
2022-11-22T10:22:25.999Z,10.27
2022-11-22T10:23:26.086Z,10.2
2022-11-22T10:24:25.956Z,10.25
2022-11-22T10:25:25.995Z,10.18
2022-11-22T10:26:25.969Z,10
2022-11-22T10:27:28.743Z,10.07
2022-11-22T10:28:25.984Z,10.24
2022-11-22T10:29:25.968Z,10.12
2022-11-22T10:30:25.986Z,10.21
2022-11-22T10:31:26.097Z,10.18
2022-11-22T10:32:26.139Z,10.15
2022-11-22T10:33:25.981Z,10.23
2022-11-22T10:34:25.976Z,10.06
2022-11-22T10:35:25.992Z,10.23
2022-11-22T10:36:26.120Z,10.15
2022-11-22T10:37:26.027Z,10.23
2022-11-22T10:38:29.015Z,10.3
2022-11-22T10:39:31.536Z,10.2
2022-11-22T10:40:26.027Z,10.21
2022-11-22T10:41:26.004Z,10.07
2022-11-22T10:42:25.985Z,10
2022-11-22T10:43:25.989Z,9.95
2022-11-22T10:44:26.031Z,9.94
2022-11-22T10:45:26.034Z,10.03
2022-11-22T10:46:26.003Z,10
2022-11-22T10:47:29.154Z,9.92
2022-11-22T10:48:26.119Z,10.07
2022-11-22T10:49:27.418Z,10.05
2022-11-22T10:50:26.026Z,10.12
2022-11-22T10:51:25.993Z,9.97
2022-11-22T10:52:26.139Z,10.15
2022-11-22T10:53:26.015Z,10.02
2022-11-22T10:54:28.845Z,10.03
2022-11-22T10:55:26.040Z,10.15
2022-11-22T10:56:26.009Z,10.13
2022-11-22T10:57:26.029Z,10.12
2022-11-22T10:58:26.033Z,10.15
2022-11-22T10:59:33.913Z,10.18
2022-11-22T11:00:29.083Z,10.2
2022-11-22T11:01:26.190Z,10.36
2022-11-22T11:02:26.007Z,10.3
2022-11-22T11:03:26.161Z,10.36
2022-11-22T11:04:26.140Z,10.42
2022-11-22T11:05:27.609Z,10.3
2022-11-22T11:07:14.051Z,10.34
2022-11-22T11:07:26.223Z,10.36
2022-11-22T11:10:03.314Z,10.34
2022-11-22T11:10:39.741Z,10.27
2022-11-22T11:11:37.162Z,10.23
2022-11-22T11:12:39.925Z,10.17
2022-11-22T11:13:37.173Z,10.2
2022-11-22T11:14:37.682Z,10.38
2022-11-22T11:15:37.209Z,10.38
2022-11-22T11:16:37.539Z,10.41
2022-11-22T11:17:40.249Z,10.43
2022-11-22T11:18:37.319Z,10.43
2022-11-22T11:19:37.319Z,10.53
2022-11-22T11:20:37.222Z,10.43
2022-11-22T11:21:37.200Z,10.36
2022-11-22T11:23:18.508Z,10.41
2022-11-22T11:23:37.311Z,10.38
2022-11-22T11:24:37.639Z,10.27
2022-11-22T11:25:37.213Z,10.39
2022-11-22T11:26:37.195Z,10.28
2022-11-22T11:27:37.191Z,10.28
2022-11-22T11:28:37.203Z,10.34
2022-11-22T11:29:42.276Z,10.23
2022-11-22T11:30:37.249Z,10.21
2022-11-22T11:31:37.218Z,10.34
2022-11-22T11:32:37.225Z,10.31
2022-11-22T11:33:37.239Z,10.39
2022-11-22T11:34:37.647Z,10.25
2022-11-22T11:35:37.273Z,10.41
2022-11-22T11:36:37.199Z,10.18
2022-11-22T11:37:37.220Z,10.38
2022-11-22T11:38:37.216Z,10.24
2022-11-22T11:39:40.623Z,10.3
2022-11-22T11:40:37.255Z,10.23
2022-11-22T11:41:43.622Z,10.27
2022-11-22T11:42:40.230Z,10.23
2022-11-22T11:43:37.214Z,10.25
2022-11-22T11:44:40.571Z,10.38
2022-11-22T11:45:37.238Z,10.36
2022-11-22T11:46:37.239Z,10.33
2022-11-22T11:47:37.234Z,10.36
2022-11-22T11:48:37.241Z,10.38
2022-11-22T11:49:37.692Z,10.27
2022-11-22T11:50:37.388Z,10.41
2022-11-22T11:51:37.390Z,10.46
2022-11-22T11:52:37.253Z,10.34
2022-11-22T11:53:37.339Z,10.24
2022-11-22T11:54:37.263Z,10.43
2022-11-22T11:55:37.396Z,10.34
2022-11-22T11:56:37.250Z,10.38
2022-11-22T11:57:37.232Z,10.42
2022-11-22T11:58:37.355Z,10.42
2022-11-22T11:59:37.931Z,10.41
2022-11-22T12:00:40.661Z,10.43
2022-11-22T12:01:45.978Z,10.49
2022-11-22T12:02:40.710Z,10.42
2022-11-22T12:03:37.248Z,10.45
2022-11-22T12:04:37.713Z,10.57
2022-11-22T12:05:37.289Z,10.61
2022-11-22T12:06:37.392Z,10.48
2022-11-22T12:07:37.684Z,10.59
2022-11-22T12:08:37.270Z,10.67
2022-11-22T12:09:37.276Z,10.68
2022-11-22T12:10:37.301Z,10.67
2022-11-22T12:11:41.216Z,10.59
2022-11-22T12:12:37.281Z,10.62
2022-11-22T12:15:19.712Z,10.67
2022-11-22T12:16:18.679Z,10.77
2022-11-22T12:17:18.613Z,10.67
2022-11-22T12:18:18.618Z,10.65
2022-11-22T12:19:25.094Z,10.67
2022-11-22T12:48:34.514Z,10.3
2022-11-22T12:49:36.810Z,10.36
2022-11-22T12:50:33.814Z,10.34
2022-11-22T12:51:33.806Z,10.42
2022-11-22T12:52:33.804Z,10.34
2022-11-22T12:53:33.835Z,10.38
2022-11-22T12:54:35.086Z,10.31
2022-11-22T12:55:33.804Z,10.46
2022-11-22T12:56:38.287Z,10.53
2022-11-22T12:57:33.841Z,10.51
2022-11-22T12:58:33.847Z,10.41
2022-11-22T12:59:33.835Z,10.42
2022-11-22T13:00:36.835Z,10.48
2022-11-22T13:01:34.095Z,10.48
2022-11-22T13:02:33.822Z,10.45
2022-11-22T13:03:33.872Z,10.46
2022-11-22T13:04:35.118Z,10.49
2022-11-22T13:05:33.827Z,10.39
2022-11-22T13:06:33.827Z,10.55
2022-11-22T13:07:34.093Z,10.36
2022-11-22T13:08:33.844Z,10.41
2022-11-22T13:09:33.834Z,10.45
2022-11-22T13:10:33.675Z,10.41
2022-11-22T13:11:36.945Z,10.42
2022-11-22T13:12:33.887Z,10.49
2022-11-22T13:13:33.876Z,10.48
2022-11-22T13:14:34.478Z,10.39
2022-11-22T13:15:33.878Z,10.31
2022-11-22T13:16:33.852Z,10.42
2022-11-22T13:17:33.860Z,10.38
2022-11-22T13:18:34.061Z,10.39
2022-11-22T13:19:33.866Z,10.45
2022-11-22T13:20:38.225Z,10.21
2022-11-22T13:21:33.876Z,10.21
2022-11-22T13:22:36.658Z,10.34
2022-11-22T13:23:33.883Z,10.28
2022-11-22T13:24:35.035Z,10.3
2022-11-22T13:25:33.866Z,10.15
2022-11-22T13:26:33.862Z,10.33
2022-11-22T13:27:33.894Z,10.33
2022-11-22T13:28:33.885Z,10.33
2022-11-22T13:29:33.869Z,10.33
2022-11-22T13:30:33.911Z,10.38
2022-11-22T13:31:40.904Z,10.42
2022-11-22T13:32:33.869Z,10.43
2022-11-22T13:33:36.984Z,10.53
2022-11-22T13:34:34.764Z,10.48
2022-11-22T13:35:33.893Z,10.49
2022-11-22T13:36:34.333Z,10.57
2022-11-22T13:37:33.872Z,10.51
2022-11-22T13:38:33.912Z,10.43
2022-11-22T13:39:33.870Z,10.55
2022-11-22T13:40:33.890Z,10.59
2022-11-22T13:41:33.896Z,10.55
2022-11-22T13:42:33.915Z,10.43
2022-11-22T13:43:33.962Z,10.49
2022-11-22T13:44:37.422Z,10.43
2022-11-22T13:45:33.893Z,10.38
2022-11-22T13:46:33.903Z,10.39
2022-11-22T13:47:33.915Z,10.49
2022-11-22T13:48:34.117Z,10.36